sensor_id;sensor_type;location;lat;lon;timestamp;pressure;altitude;pressure_sealevel;temperature;humidity
69780;BME280;57052;55.602;38.096;2024-01-30T00:01:51;101505.00;;;0.52;73.19
69780;BME280;57052;55.602;38.096;2024-01-30T00:04:17;101497.16;;;0.50;73.34
69780;BME280;57052;55.602;38.096;2024-01-30T00:06:43;101471.09;;;0.38;73.56
69780;BME280;57052;55.602;38.096;2024-01-30T00:09:09;101472.69;;;0.55;73.38
69780;BME280;57052;55.602;38.096;2024-01-30T00:11:37;101474.34;;;0.56;73.50
69780;BME280;57052;55.602;38.096;2024-01-30T00:14:03;101482.00;;;0.59;73.27
69780;BME280;57052;55.602;38.096;2024-01-30T00:16:29;101477.53;;;0.51;73.82
69780;BME280;57052;55.602;38.096;2024-01-30T00:18:55;101480.00;;;0.53;73.52
69780;BME280;57052;55.602;38.096;2024-01-30T00:21:21;101467.75;;;0.44;73.24
69780;BME280;57052;55.602;38.096;2024-01-30T00:23:47;101462.59;;;0.42;73.69
69780;BME280;57052;55.602;38.096;2024-01-30T00:26:13;101482.84;;;0.51;73.68
69780;BME280;57052;55.602;38.096;2024-01-30T00:28:41;101468.41;;;0.46;73.70
69780;BME280;57052;55.602;38.096;2024-01-30T00:31:07;101471.88;;;0.54;73.54
69780;BME280;57052;55.602;38.096;2024-01-30T00:33:34;101455.94;;;0.38;73.62
69780;BME280;57052;55.602;38.096;2024-01-30T00:35:59;101478.91;;;0.47;73.70
69780;BME280;57052;55.602;38.096;2024-01-30T00:38:25;101466.38;;;0.48;73.81
69780;BME280;57052;55.602;38.096;2024-01-30T00:40:51;101466.38;;;0.48;73.85
69780;BME280;57052;55.602;38.096;2024-01-30T00:43:17;101468.53;;;0.52;73.87
69780;BME280;57052;55.602;38.096;2024-01-30T00:45:45;101466.53;;;0.54;73.92
69780;BME280;57052;55.602;38.096;2024-01-30T00:48:11;101449.06;;;0.52;73.68
69780;BME280;57052;55.602;38.096;2024-01-30T00:50:37;101453.38;;;0.53;73.23
69780;BME280;57052;55.602;38.096;2024-01-30T00:53:03;101459.19;;;0.56;73.75
69780;BME280;57052;55.602;38.096;2024-01-30T00:55:29;101452.50;;;0.60;73.58
69780;BME280;57052;55.602;38.096;2024-01-30T00:57:54;101458.00;;;0.59;73.85
69780;BME280;57052;55.602;38.096;2024-01-30T01:00:20;101451.69;;;0.60;73.48
69780;BME280;57052;55.602;38.096;2024-01-30T01:02:46;101432.78;;;0.47;73.53
69780;BME280;57052;55.602;38.096;2024-01-30T01:05:12;101453.03;;;0.56;73.54
69780;BME280;57052;55.602;38.096;2024-01-30T01:07:38;101455.16;;;0.60;73.99
69780;BME280;57052;55.602;38.096;2024-01-30T01:10:06;101441.06;;;0.52;73.46
69780;BME280;57052;55.602;38.096;2024-01-30T01:12:32;101452.81;;;0.65;73.53
69780;BME280;57052;55.602;38.096;2024-01-30T01:14:57;101461.09;;;0.71;73.55
69780;BME280;57052;55.602;38.096;2024-01-30T01:17:23;101454.97;;;0.70;73.34
69780;BME280;57052;55.602;38.096;2024-01-30T01:19:49;101447.97;;;0.69;73.27
69780;BME280;57052;55.602;38.096;2024-01-30T01:22:16;101441.81;;;0.69;73.48
69780;BME280;57052;55.602;38.096;2024-01-30T01:24:42;101450.28;;;0.72;73.46
69780;BME280;57052;55.602;38.096;2024-01-30T01:27:08;101438.50;;;0.67;73.50
69780;BME280;57052;55.602;38.096;2024-01-30T01:29:34;101431.16;;;0.69;73.35
69780;BME280;57052;55.602;38.096;2024-01-30T01:32:00;101439.31;;;0.67;73.81
69780;BME280;57052;55.602;38.096;2024-01-30T01:34:25;101435.28;;;0.71;73.53
69780;BME280;57052;55.602;38.096;2024-01-30T01:36:51;101436.97;;;0.72;73.51
69780;BME280;57052;55.602;38.096;2024-01-30T01:39:21;101431.63;;;0.72;73.68
69780;BME280;57052;55.602;38.096;2024-01-30T01:41:48;101418.66;;;0.69;73.45
69780;BME280;57052;55.602;38.096;2024-01-30T01:44:13;101436.91;;;0.80;73.35
69780;BME280;57052;55.602;38.096;2024-01-30T01:46:39;101433.72;;;0.85;73.17
69780;BME280;57052;55.602;38.096;2024-01-30T01:49:05;101420.75;;;0.82;73.36
69780;BME280;57052;55.602;38.096;2024-01-30T01:51:34;101427.56;;;0.84;73.33
69780;BME280;57052;55.602;38.096;2024-01-30T01:54:04;101408.09;;;0.76;73.42
69780;BME280;57052;55.602;38.096;2024-01-30T01:56:31;101414.88;;;0.86;73.58
69780;BME280;57052;55.602;38.096;2024-01-30T01:59:00;101411.56;;;0.84;73.66
69780;BME280;57052;55.602;38.096;2024-01-30T02:01:27;101389.09;;;0.79;73.70
69780;BME280;57052;55.602;38.096;2024-01-30T02:03:55;101403.91;;;0.81;73.61
69780;BME280;57052;55.602;38.096;2024-01-30T02:06:21;101409.25;;;0.81;73.70
69780;BME280;57052;55.602;38.096;2024-01-30T02:08:47;101412.19;;;0.86;73.57
69780;BME280;57052;55.602;38.096;2024-01-30T02:11:13;101411.66;;;0.91;73.31
69780;BME280;57052;55.602;38.096;2024-01-30T02:13:40;101411.81;;;0.97;73.18
69780;BME280;57052;55.602;38.096;2024-01-30T02:16:06;101406.47;;;0.97;73.46
69780;BME280;57052;55.602;38.096;2024-01-30T02:18:32;101408.41;;;1.03;73.75
69780;BME280;57052;55.602;38.096;2024-01-30T02:21:17;101409.72;;;1.07;73.53
69780;BME280;57052;55.602;38.096;2024-01-30T02:23:44;101400.31;;;0.97;73.24
69780;BME280;57052;55.602;38.096;2024-01-30T02:26:12;101392.13;;;0.98;73.74
69780;BME280;57052;55.602;38.096;2024-01-30T02:28:38;101394.09;;;1.04;73.30
69780;BME280;57052;55.602;38.096;2024-01-30T02:31:04;101400.13;;;0.98;73.36
69780;BME280;57052;55.602;38.096;2024-01-30T02:33:30;101377.25;;;0.81;73.41
69780;BME280;57052;55.602;38.096;2024-01-30T02:35:56;101412.09;;;1.02;73.11
69780;BME280;57052;55.602;38.096;2024-01-30T02:38:22;101399.75;;;1.01;73.29
69780;BME280;57052;55.602;38.096;2024-01-30T02:40:49;101408.88;;;1.07;73.53
69780;BME280;57052;55.602;38.096;2024-01-30T02:43:16;101403.66;;;1.13;73.26
69780;BME280;57052;55.602;38.096;2024-01-30T02:45:42;101403.13;;;1.18;72.79
69780;BME280;57052;55.602;38.096;2024-01-30T02:48:08;101388.75;;;1.04;72.81
69780;BME280;57052;55.602;38.096;2024-01-30T02:50:34;101398.06;;;1.23;73.46
69780;BME280;57052;55.602;38.096;2024-01-30T02:53:00;101374.03;;;1.08;73.52
69780;BME280;57052;55.602;38.096;2024-01-30T02:55:26;101387.66;;;1.13;73.30
69780;BME280;57052;55.602;38.096;2024-01-30T02:57:52;101391.16;;;1.14;73.12
69780;BME280;57052;55.602;38.096;2024-01-30T03:00:20;101385.13;;;1.20;72.75
69780;BME280;57052;55.602;38.096;2024-01-30T03:02:46;101379.00;;;1.11;72.98
69780;BME280;57052;55.602;38.096;2024-01-30T03:05:12;101387.66;;;1.13;73.60
69780;BME280;57052;55.602;38.096;2024-01-30T03:07:38;101401.03;;;1.28;73.20
69780;BME280;57052;55.602;38.096;2024-01-30T03:10:06;101409.50;;;1.32;72.99
69780;BME280;57052;55.602;38.096;2024-01-30T03:12:32;101413.56;;;1.27;73.15
69780;BME280;57052;55.602;38.096;2024-01-30T03:14:58;101420.53;;;1.28;73.53
69780;BME280;57052;55.602;38.096;2024-01-30T03:17:24;101409.56;;;1.23;73.45
69780;BME280;57052;55.602;38.096;2024-01-30T03:19:51;101406.84;;;1.32;72.74
69780;BME280;57052;55.602;38.096;2024-01-30T03:22:17;101425.44;;;1.40;72.93
69780;BME280;57052;55.602;38.096;2024-01-30T03:24:42;101425.50;;;1.32;73.10
69780;BME280;57052;55.602;38.096;2024-01-30T03:27:09;101432.41;;;1.41;73.06
69780;BME280;57052;55.602;38.096;2024-01-30T03:29:35;101434.63;;;1.37;73.27
69780;BME280;57052;55.602;38.096;2024-01-30T03:32:00;101433.25;;;1.41;73.06
69780;BME280;57052;55.602;38.096;2024-01-30T03:34:26;101440.13;;;1.36;73.90
69780;BME280;57052;55.602;38.096;2024-01-30T03:36:52;101434.94;;;1.42;73.31
69780;BME280;57052;55.602;38.096;2024-01-30T03:39:18;101422.94;;;1.38;73.32
69780;BME280;57052;55.602;38.096;2024-01-30T03:41:44;101438.81;;;1.54;72.88
69780;BME280;57052;55.602;38.096;2024-01-30T03:44:10;101424.47;;;1.55;73.30
69780;BME280;57052;55.602;38.096;2024-01-30T03:46:36;101437.25;;;1.60;72.99
69780;BME280;57052;55.602;38.096;2024-01-30T03:49:02;101433.47;;;1.54;73.47
69780;BME280;57052;55.602;38.096;2024-01-30T03:51:29;101433.47;;;1.54;73.50
69780;BME280;57052;55.602;38.096;2024-01-30T03:53:55;101433.94;;;1.58;73.44
69780;BME280;57052;55.602;38.096;2024-01-30T03:56:21;101427.50;;;1.67;72.81
69780;BME280;57052;55.602;38.096;2024-01-30T03:58:47;101422.66;;;1.70;73.28
69780;BME280;57052;55.602;38.096;2024-01-30T04:01:15;101419.22;;;1.76;73.41
69780;BME280;57052;55.602;38.096;2024-01-30T04:03:41;101435.25;;;1.76;72.89
69780;BME280;57052;55.602;38.096;2024-01-30T04:06:09;101388.75;;;1.56;72.83
69780;BME280;57052;55.602;38.096;2024-01-30T04:08:35;101428.16;;;1.83;73.12
69780;BME280;57052;55.602;38.096;2024-01-30T04:11:07;101437.28;;;1.89;73.06
69780;BME280;57052;55.602;38.096;2024-01-30T04:13:33;101452.47;;;1.88;72.86
69780;BME280;57052;55.602;38.096;2024-01-30T04:16:02;101437.09;;;1.90;73.08
69780;BME280;57052;55.602;38.096;2024-01-30T04:18:29;101459.19;;;1.99;73.10
69780;BME280;57052;55.602;38.096;2024-01-30T04:20:56;101449.44;;;2.06;72.33
69780;BME280;57052;55.602;38.096;2024-01-30T04:23:22;101451.28;;;2.06;72.59
69780;BME280;57052;55.602;38.096;2024-01-30T04:25:48;101444.44;;;2.03;72.94
69780;BME280;57052;55.602;38.096;2024-01-30T04:28:14;101430.38;;;1.94;72.79
69780;BME280;57052;55.602;38.096;2024-01-30T04:30:40;101449.44;;;2.06;73.04
69780;BME280;57052;55.602;38.096;2024-01-30T04:33:06;101446.47;;;2.01;72.97
69780;BME280;57052;55.602;38.096;2024-01-30T04:35:31;101442.06;;;2.08;72.29
69780;BME280;57052;55.602;38.096;2024-01-30T04:37:57;101432.56;;;2.06;72.29
69780;BME280;57052;55.602;38.096;2024-01-30T04:40:23;101438.38;;;2.09;72.17
69780;BME280;57052;55.602;38.096;2024-01-30T04:42:49;101444.19;;;2.13;72.23
69780;BME280;57052;55.602;38.096;2024-01-30T04:45:14;101435.53;;;2.11;72.75
69780;BME280;57052;55.602;38.096;2024-01-30T04:47:40;101425.66;;;2.11;72.05
69780;BME280;57052;55.602;38.096;2024-01-30T04:50:07;101441.03;;;2.24;72.98
69780;BME280;57052;55.602;38.096;2024-01-30T04:52:33;101419.78;;;2.16;72.27
69780;BME280;57052;55.602;38.096;2024-01-30T04:54:59;101437.25;;;2.18;72.26
69780;BME280;57052;55.602;38.096;2024-01-30T04:57:24;101427.06;;;2.22;73.00
69780;BME280;57052;55.602;38.096;2024-01-30T04:59:50;101408.94;;;2.03;72.95
69780;BME280;57052;55.602;38.096;2024-01-30T05:02:16;101450.72;;;2.25;72.47
69780;BME280;57052;55.602;38.096;2024-01-30T05:04:41;101453.28;;;2.18;73.08
69780;BME280;57052;55.602;38.096;2024-01-30T05:07:07;101448.22;;;2.23;72.55
69780;BME280;57052;55.602;38.096;2024-01-30T05:09:33;101452.47;;;2.32;72.07
69780;BME280;57052;55.602;38.096;2024-01-30T05:11:59;101460.41;;;2.40;72.37
69780;BME280;57052;55.602;38.096;2024-01-30T05:14:24;101457.31;;;2.43;72.33
69780;BME280;57052;55.602;38.096;2024-01-30T05:16:50;101450.13;;;2.44;72.54
69780;BME280;57052;55.602;38.096;2024-01-30T05:19:16;101446.63;;;2.43;71.81
69780;BME280;57052;55.602;38.096;2024-01-30T05:21:42;101439.81;;;2.41;71.75
69780;BME280;57052;55.602;38.096;2024-01-30T05:24:08;101443.78;;;2.45;71.94
69780;BME280;57052;55.602;38.096;2024-01-30T05:26:35;101452.66;;;2.45;72.14
69780;BME280;57052;55.602;38.096;2024-01-30T05:29:02;101442.84;;;2.52;72.27
69780;BME280;57052;55.602;38.096;2024-01-30T05:31:27;101453.56;;;2.52;71.71
69780;BME280;57052;55.602;38.096;2024-01-30T05:33:54;101413.06;;;2.20;72.36
69780;BME280;57052;55.602;38.096;2024-01-30T05:36:20;101447.47;;;2.44;72.10
69780;BME280;57052;55.602;38.096;2024-01-30T05:38:46;101466.91;;;2.52;71.71
69780;BME280;57052;55.602;38.096;2024-01-30T05:41:11;101459.72;;;2.53;71.99
69780;BME280;57052;55.602;38.096;2024-01-30T05:43:37;101457.84;;;2.53;71.64
69780;BME280;57052;55.602;38.096;2024-01-30T05:46:03;101462.00;;;2.56;71.96
69780;BME280;57052;55.602;38.096;2024-01-30T05:48:29;101447.16;;;2.53;72.01
69780;BME280;57052;55.602;38.096;2024-01-30T05:50:54;101449.75;;;2.62;71.93
69780;BME280;57052;55.602;38.096;2024-01-30T05:53:20;101465.22;;;2.66;72.46
69780;BME280;57052;55.602;38.096;2024-01-30T05:55:46;101468.72;;;2.67;71.80
69780;BME280;57052;55.602;38.096;2024-01-30T05:58:11;101457.66;;;2.70;72.01
69780;BME280;57052;55.602;38.096;2024-01-30T06:00:37;101472.84;;;2.69;72.32
69780;BME280;57052;55.602;38.096;2024-01-30T06:03:03;101475.00;;;2.59;72.56
69780;BME280;57052;55.602;38.096;2024-01-30T06:05:29;101463.69;;;2.57;72.33
69780;BME280;57052;55.602;38.096;2024-01-30T06:07:54;101476.09;;;2.65;72.27
69780;BME280;57052;55.602;38.096;2024-01-30T06:10:20;101489.72;;;2.70;71.87
69780;BME280;57052;55.602;38.096;2024-01-30T06:12:46;101489.91;;;2.68;72.67
69780;BME280;57052;55.602;38.096;2024-01-30T06:15:11;101481.88;;;2.68;72.27
69780;BME280;57052;55.602;38.096;2024-01-30T06:17:38;101484.66;;;2.75;71.46
69780;BME280;57052;55.602;38.096;2024-01-30T06:20:05;101476.38;;;2.70;71.77
69780;BME280;57052;55.602;38.096;2024-01-30T06:22:31;101486.13;;;2.77;72.40
69780;BME280;57052;55.602;38.096;2024-01-30T06:24:56;101477.31;;;2.83;71.93
69780;BME280;57052;55.602;38.096;2024-01-30T06:27:22;101480.69;;;2.71;71.99
69780;BME280;57052;55.602;38.096;2024-01-30T06:29:48;101489.91;;;2.83;72.25
69780;BME280;57052;55.602;38.096;2024-01-30T06:32:14;101473.06;;;2.68;72.59
69780;BME280;57052;55.602;38.096;2024-01-30T06:34:41;101473.38;;;2.79;71.96
69780;BME280;57052;55.602;38.096;2024-01-30T06:37:06;101486.56;;;2.81;71.85
69780;BME280;57052;55.602;38.096;2024-01-30T06:39:32;101482.69;;;2.83;71.96
69780;BME280;57052;55.602;38.096;2024-01-30T06:41:58;101489.06;;;2.82;71.52
69780;BME280;57052;55.602;38.096;2024-01-30T06:44:23;101490.97;;;2.88;72.23
69780;BME280;57052;55.602;38.096;2024-01-30T06:46:49;101492.06;;;2.94;71.41
69780;BME280;57052;55.602;38.096;2024-01-30T06:49:15;101488.75;;;2.92;71.42
69780;BME280;57052;55.602;38.096;2024-01-30T06:51:41;101495.78;;;2.93;71.34
69780;BME280;57052;55.602;38.096;2024-01-30T06:54:06;101498.13;;;3.02;72.02
69780;BME280;57052;55.602;38.096;2024-01-30T06:56:32;101493.63;;;3.03;71.13
69780;BME280;57052;55.602;38.096;2024-01-30T06:58:58;101494.31;;;3.11;71.96
69780;BME280;57052;55.602;38.096;2024-01-30T07:01:30;101493.47;;;3.11;71.67
69780;BME280;57052;55.602;38.096;2024-01-30T07:03:57;101495.16;;;3.12;71.64
69780;BME280;57052;55.602;38.096;2024-01-30T07:06:23;101484.44;;;3.12;71.64
69780;BME280;57052;55.602;38.096;2024-01-30T07:08:49;101500.50;;;3.12;71.77
69780;BME280;57052;55.602;38.096;2024-01-30T07:11:22;101477.38;;;3.04;71.63
69780;BME280;57052;55.602;38.096;2024-01-30T07:13:50;101442.84;;;2.88;71.51
69780;BME280;57052;55.602;38.096;2024-01-30T07:16:16;101509.41;;;3.19;70.94
69780;BME280;57052;55.602;38.096;2024-01-30T07:18:43;101506.81;;;3.26;71.17
69780;BME280;57052;55.602;38.096;2024-01-30T07:21:09;101515.84;;;3.24;71.29
69780;BME280;57052;55.602;38.096;2024-01-30T07:23:35;101512.09;;;3.19;71.18
69780;BME280;57052;55.602;38.096;2024-01-30T07:28:48;101523.81;;;3.18;71.17
69780;BME280;57052;55.602;38.096;2024-01-30T07:31:15;101513.56;;;3.21;70.90
69780;BME280;57052;55.602;38.096;2024-01-30T07:33:41;101459.81;;;2.95;71.66
69780;BME280;57052;55.602;38.096;2024-01-30T07:36:07;101517.59;;;3.32;70.81
69780;BME280;57052;55.602;38.096;2024-01-30T07:38:32;101515.75;;;3.33;71.67
69780;BME280;57052;55.602;38.096;2024-01-30T07:40:58;101503.38;;;3.32;70.99
69780;BME280;57052;55.602;38.096;2024-01-30T07:43:24;101503.03;;;3.41;70.76
69780;BME280;57052;55.602;38.096;2024-01-30T07:45:50;101519.34;;;3.46;71.14
69780;BME280;57052;55.602;38.096;2024-01-30T07:48:15;101515.47;;;3.49;71.10
69780;BME280;57052;55.602;38.096;2024-01-30T07:50:41;101521.53;;;3.57;70.53
69780;BME280;57052;55.602;38.096;2024-01-30T07:53:07;101522.16;;;3.59;70.77
69780;BME280;57052;55.602;38.096;2024-01-30T07:56:22;101516.22;;;3.64;70.64
69780;BME280;57052;55.602;38.096;2024-01-30T07:58:41;101509.78;;;3.58;70.12
69780;BME280;57052;55.602;38.096;2024-01-30T08:01:08;101506.72;;;3.61;70.87
69780;BME280;57052;55.602;38.096;2024-01-30T08:03:33;101512.72;;;3.63;70.21
69780;BME280;57052;55.602;38.096;2024-01-30T08:06:00;101508.66;;;3.67;70.91
69780;BME280;57052;55.602;38.096;2024-01-30T08:08:25;101500.13;;;3.57;70.44
69780;BME280;57052;55.602;38.096;2024-01-30T08:10:52;101513.38;;;3.65;70.28
69780;BME280;57052;55.602;38.096;2024-01-30T08:13:18;101501.75;;;3.58;70.50
69780;BME280;57052;55.602;38.096;2024-01-30T08:15:43;101497.69;;;3.62;70.52
69780;BME280;57052;55.602;38.096;2024-01-30T08:18:09;101507.50;;;3.55;70.94
69780;BME280;57052;55.602;38.096;2024-01-30T08:20:35;101494.63;;;3.44;70.93
69780;BME280;57052;55.602;38.096;2024-01-30T08:23:00;101489.78;;;3.54;70.73
69780;BME280;57052;55.602;38.096;2024-01-30T08:25:26;101499.56;;;3.68;70.73
69780;BME280;57052;55.602;38.096;2024-01-30T08:27:52;101497.72;;;3.69;69.98
69780;BME280;57052;55.602;38.096;2024-01-30T08:30:19;101511.81;;;3.77;70.58
69780;BME280;57052;55.602;38.096;2024-01-30T08:32:44;101501.72;;;3.79;70.40
69780;BME280;57052;55.602;38.096;2024-01-30T08:35:10;101495.78;;;3.84;70.18
69780;BME280;57052;55.602;38.096;2024-01-30T08:37:39;101501.59;;;3.87;69.83
69780;BME280;57052;55.602;38.096;2024-01-30T08:40:05;101504.94;;;3.96;70.30
69780;BME280;57052;55.602;38.096;2024-01-30T08:42:31;101508.66;;;3.95;69.67
69780;BME280;57052;55.602;38.096;2024-01-30T08:44:57;101511.13;;;3.97;70.04
69780;BME280;57052;55.602;38.096;2024-01-30T08:47:22;101505.59;;;3.98;69.62
69780;BME280;57052;55.602;38.096;2024-01-30T08:49:48;101502.72;;;4.00;69.75
69780;BME280;57052;55.602;38.096;2024-01-30T08:52:14;101478.09;;;3.83;69.65
69780;BME280;57052;55.602;38.096;2024-01-30T08:54:40;101502.47;;;3.95;69.83
69780;BME280;57052;55.602;38.096;2024-01-30T08:57:05;101509.53;;;4.02;69.99
69780;BME280;57052;55.602;38.096;2024-01-30T08:59:31;101507.00;;;3.94;69.82
69780;BME280;57052;55.602;38.096;2024-01-30T09:01:57;101504.56;;;3.99;69.49
69780;BME280;57052;55.602;38.096;2024-01-30T09:04:24;101502.72;;;4.00;69.44
69780;BME280;57052;55.602;38.096;2024-01-30T09:06:51;101502.56;;;4.08;69.38
69780;BME280;57052;55.602;38.096;2024-01-30T09:09:17;101493.47;;;4.02;69.47
69780;BME280;57052;55.602;38.096;2024-01-30T09:11:43;101505.03;;;4.09;69.08
69780;BME280;57052;55.602;38.096;2024-01-30T09:14:09;101502.94;;;4.05;69.31
69780;BME280;57052;55.602;38.096;2024-01-30T09:16:35;101513.47;;;4.06;69.27
69780;BME280;57052;55.602;38.096;2024-01-30T09:19:01;101512.22;;;4.02;69.41
69780;BME280;57052;55.602;38.096;2024-01-30T09:21:27;101508.31;;;4.05;69.10
69780;BME280;57052;55.602;38.096;2024-01-30T09:23:54;101513.28;;;4.08;69.26
69780;BME280;57052;55.602;38.096;2024-01-30T09:26:20;101509.63;;;4.15;69.27
69780;BME280;57052;55.602;38.096;2024-01-30T09:28:46;101501.19;;;4.18;69.41
69780;BME280;57052;55.602;38.096;2024-01-30T09:31:12;101509.06;;;4.26;69.06
69780;BME280;57052;55.602;38.096;2024-01-30T09:33:38;101485.13;;;4.18;69.47
69780;BME280;57052;55.602;38.096;2024-01-30T09:36:05;101502.47;;;4.29;68.86
69780;BME280;57052;55.602;38.096;2024-01-30T09:38:31;101508.69;;;4.29;69.12
69780;BME280;57052;55.602;38.096;2024-01-30T09:41:02;101517.16;;;4.33;69.17
69780;BME280;57052;55.602;38.096;2024-01-30T09:43:33;101503.94;;;4.31;68.78
69780;BME280;57052;55.602;38.096;2024-01-30T09:46:01;101506.22;;;4.34;68.49
69780;BME280;57052;55.602;38.096;2024-01-30T09:48:29;101496.75;;;4.38;68.72
69780;BME280;57052;55.602;38.096;2024-01-30T09:50:57;101498.41;;;4.39;68.83
69780;BME280;57052;55.602;38.096;2024-01-30T09:53:23;101495.75;;;4.39;69.07
69780;BME280;57052;55.602;38.096;2024-01-30T09:55:50;101499.44;;;4.38;68.66
69780;BME280;57052;55.602;38.096;2024-01-30T09:58:16;101482.72;;;4.36;68.26
69780;BME280;57052;55.602;38.096;2024-01-30T10:00:42;101484.41;;;4.44;68.52
69780;BME280;57052;55.602;38.096;2024-01-30T10:03:08;101498.06;;;4.49;68.36
69780;BME280;57052;55.602;38.096;2024-01-30T10:05:35;101502.78;;;4.47;68.49
69780;BME280;57052;55.602;38.096;2024-01-30T10:08:06;101503.22;;;4.50;68.28
69780;BME280;57052;55.602;38.096;2024-01-30T10:10:35;101504.03;;;4.51;68.32
69780;BME280;57052;55.602;38.096;2024-01-30T10:13:01;101495.75;;;4.46;68.28
69780;BME280;57052;55.602;38.096;2024-01-30T10:15:28;101487.16;;;4.50;68.52
69780;BME280;57052;55.602;38.096;2024-01-30T10:17:54;101490.25;;;4.54;68.25
69780;BME280;57052;55.602;38.096;2024-01-30T10:20:20;101492.13;;;4.60;68.52
69780;BME280;57052;55.602;38.096;2024-01-30T10:22:49;101496.44;;;4.61;68.49
69780;BME280;57052;55.602;38.096;2024-01-30T10:25:15;101487.94;;;4.51;67.96
69780;BME280;57052;55.602;38.096;2024-01-30T10:27:41;101504.69;;;4.53;68.13
69780;BME280;57052;55.602;38.096;2024-01-30T10:30:07;101496.41;;;4.48;68.35
69780;BME280;57052;55.602;38.096;2024-01-30T10:32:33;101515.41;;;4.53;68.51
69780;BME280;57052;55.602;38.096;2024-01-30T10:34:59;101510.44;;;4.50;68.17
69780;BME280;57052;55.602;38.096;2024-01-30T10:37:25;101509.81;;;4.48;68.29
69780;BME280;57052;55.602;38.096;2024-01-30T10:39:53;101509.00;;;4.47;68.30
69780;BME280;57052;55.602;38.096;2024-01-30T10:42:26;101504.47;;;4.48;68.52
69780;BME280;57052;55.602;38.096;2024-01-30T10:45:08;101495.34;;;4.42;68.01
69780;BME280;57052;55.602;38.096;2024-01-30T10:47:35;101487.53;;;4.47;68.48
69780;BME280;57052;55.602;38.096;2024-01-30T10:50:04;101492.69;;;4.49;68.35
69780;BME280;57052;55.602;38.096;2024-01-30T10:52:32;101493.38;;;4.58;68.40
69780;BME280;57052;55.602;38.096;2024-01-30T10:54:59;101485.09;;;4.52;68.22
69780;BME280;57052;55.602;38.096;2024-01-30T10:57:26;101486.16;;;4.58;68.58
69780;BME280;57052;55.602;38.096;2024-01-30T10:59:55;101480.38;;;4.61;68.48
69780;BME280;57052;55.602;38.096;2024-01-30T11:02:23;101496.69;;;4.66;67.77
69780;BME280;57052;55.602;38.096;2024-01-30T11:04:49;101488.47;;;4.68;68.20
69780;BME280;57052;55.602;38.096;2024-01-30T11:07:17;101496.69;;;4.66;68.15
69780;BME280;57052;55.602;38.096;2024-01-30T11:09:53;101500.81;;;4.62;67.46
69780;BME280;57052;55.602;38.096;2024-01-30T11:12:22;101511.91;;;4.59;67.90
69780;BME280;57052;55.602;38.096;2024-01-30T11:14:49;101511.91;;;4.59;68.08
69780;BME280;57052;55.602;38.096;2024-01-30T11:17:15;101511.75;;;4.61;68.24
69780;BME280;57052;55.602;38.096;2024-01-30T11:19:41;101508.25;;;4.67;68.00
69780;BME280;57052;55.602;38.096;2024-01-30T11:22:10;101509.22;;;4.52;67.88
69780;BME280;57052;55.602;38.096;2024-01-30T11:24:40;101508.53;;;4.44;68.08
69780;BME280;57052;55.602;38.096;2024-01-30T11:27:10;101475.88;;;4.27;68.05
69780;BME280;57052;55.602;38.096;2024-01-30T11:29:36;101489.53;;;4.39;68.33
69780;BME280;57052;55.602;38.096;2024-01-30T11:32:02;101506.25;;;4.41;68.36
69780;BME280;57052;55.602;38.096;2024-01-30T11:34:28;101485.41;;;4.36;68.36
69780;BME280;57052;55.602;38.096;2024-01-30T11:36:59;101499.50;;;4.51;68.20
69780;BME280;57052;55.602;38.096;2024-01-30T11:39:25;101509.84;;;4.54;68.52
69780;BME280;57052;55.602;38.096;2024-01-30T11:41:54;101508.38;;;4.52;67.98
69780;BME280;57052;55.602;38.096;2024-01-30T11:44:21;101510.47;;;4.57;68.03
69780;BME280;57052;55.602;38.096;2024-01-30T11:46:51;101496.66;;;4.53;68.16
69780;BME280;57052;55.602;38.096;2024-01-30T11:49:17;101498.69;;;4.51;68.51
69780;BME280;57052;55.602;38.096;2024-01-30T11:51:46;101460.19;;;4.24;68.16
69780;BME280;57052;55.602;38.096;2024-01-30T11:54:14;101525.56;;;4.64;67.82
69780;BME280;57052;55.602;38.096;2024-01-30T11:56:42;101525.16;;;4.67;68.31
69780;BME280;57052;55.602;38.096;2024-01-30T11:59:08;101535.50;;;4.70;68.23
69780;BME280;57052;55.602;38.096;2024-01-30T12:01:34;101523.94;;;4.63;68.23
69780;BME280;57052;55.602;38.096;2024-01-30T12:04:00;101517.28;;;4.59;67.92
69780;BME280;57052;55.602;38.096;2024-01-30T12:06:27;101530.38;;;4.75;68.40
69780;BME280;57052;55.602;38.096;2024-01-30T12:09:00;101545.41;;;4.76;67.57
69780;BME280;57052;55.602;38.096;2024-01-30T12:11:27;101546.47;;;4.75;68.16
69780;BME280;57052;55.602;38.096;2024-01-30T12:13:53;101555.97;;;4.78;67.80
69780;BME280;57052;55.602;38.096;2024-01-30T12:16:20;101553.69;;;4.75;68.10
69780;BME280;57052;55.602;38.096;2024-01-30T12:18:46;101552.44;;;4.77;67.94
69780;BME280;57052;55.602;38.096;2024-01-30T12:21:12;101528.25;;;4.64;68.05
69780;BME280;57052;55.602;38.096;2024-01-30T12:23:37;101548.91;;;4.70;68.20
69780;BME280;57052;55.602;38.096;2024-01-30T12:26:04;101549.94;;;4.69;68.19
69780;BME280;57052;55.602;38.096;2024-01-30T12:28:33;101561.84;;;4.60;68.36
69780;BME280;57052;55.602;38.096;2024-01-30T12:31:03;101554.44;;;4.62;68.05
69780;BME280;57052;55.602;38.096;2024-01-30T12:33:29;101544.91;;;4.53;67.92
69780;BME280;57052;55.602;38.096;2024-01-30T12:36:02;101544.50;;;4.56;68.08
69780;BME280;57052;55.602;38.096;2024-01-30T12:38:28;101550.28;;;4.60;68.45
69780;BME280;57052;55.602;38.096;2024-01-30T12:40:54;101542.84;;;4.55;68.65
69780;BME280;57052;55.602;38.096;2024-01-30T12:43:22;101550.91;;;4.55;68.46
69780;BME280;57052;55.602;38.096;2024-01-30T12:45:47;101516.97;;;4.41;68.31
69780;BME280;57052;55.602;38.096;2024-01-30T12:48:13;101543.47;;;4.57;68.29
69780;BME280;57052;55.602;38.096;2024-01-30T12:50:39;101549.06;;;4.62;68.25